DLH400 EDDF-KJFK
Flight info
| Callsign | DLH400 |
|---|---|
| Flight time | N/A |
| Altitude | 36000 |
| Route | OBOKA3M/25C OBOKA Z28 DIBIR DCT BUDIP DCT GISEB DCT RAVLO Y70 ABTOS N110 ERKIT DCT KUGUR DCT PIKIL/M082F370 NATG JANJO/N0476F380 N708B MIILS DCT ENE PARCH4 |
| Aircraft | A346/H-SDE2E3FGHIJ3J4J5M1RWXY/LB1D1 |
Departure
| Time | 2026-04-17 12:05 |
|---|---|
| Airport | Frankfurt Main Airport (EDDF) |
Arrival
| Time | N/A |
|---|---|
| Airport | John F. Kennedy International Airport (KJFK) |
| Time | Latitude | Longitude | Altitude | Speed | Heading |
|---|---|---|---|---|---|
| 2026-04-17 11:32 | 50.04661 | 8.56051 | 371 ft | 0 kts | 339° |
| 2026-04-17 11:50 | 50.04656 | 8.56054 | 368 ft | 4 kts | 340° |
| 2026-04-17 11:50 | 50.04631 | 8.56068 | 368 ft | 4 kts | 340° |
| 2026-04-17 11:51 | 50.04607 | 8.56082 | 369 ft | 4 kts | 330° |
| 2026-04-17 11:51 | 50.04595 | 8.56100 | 369 ft | 4 kts | 292° |
| 2026-04-17 11:51 | 50.04593 | 8.56128 | 372 ft | 4 kts | 254° |
| 2026-04-17 11:51 | 50.04595 | 8.56138 | 372 ft | 2 kts | 249° |
| 2026-04-17 11:52 | 50.04586 | 8.56101 | 369 ft | 4 kts | 249° |
| 2026-04-17 11:52 | 50.04584 | 8.56090 | 366 ft | 0 kts | 249° |
| 2026-04-17 11:55 | 50.04583 | 8.56088 | 364 ft | 1 kts | 249° |
| 2026-04-17 11:56 | 50.04578 | 8.56066 | 368 ft | 5 kts | 249° |
| 2026-04-17 11:56 | 50.04559 | 8.56001 | 365 ft | 8 kts | 235° |
| 2026-04-17 11:56 | 50.04511 | 8.55950 | 370 ft | 9 kts | 201° |
| 2026-04-17 11:56 | 50.04446 | 8.55918 | 369 ft | 11 kts | 195° |
| 2026-04-17 11:57 | 50.04364 | 8.55919 | 368 ft | 13 kts | 163° |
| 2026-04-17 11:57 | 50.04331 | 8.55936 | 368 ft | 6 kts | 159° |
| 2026-04-17 11:57 | 50.04283 | 8.55958 | 366 ft | 9 kts | 178° |
| 2026-04-17 11:57 | 50.04223 | 8.55925 | 363 ft | 10 kts | 201° |
| 2026-04-17 11:58 | 50.04144 | 8.55938 | 365 ft | 13 kts | 159° |
| 2026-04-17 11:58 | 50.04078 | 8.56006 | 364 ft | 12 kts | 113° |
| 2026-04-17 11:58 | 50.04094 | 8.56141 | 365 ft | 13 kts | 69° |
| 2026-04-17 11:58 | 50.04128 | 8.56281 | 362 ft | 14 kts | 70° |
| 2026-04-17 11:59 | 50.04161 | 8.56423 | 367 ft | 14 kts | 69° |
| 2026-04-17 11:59 | 50.04195 | 8.56563 | 365 ft | 14 kts | 70° |
| 2026-04-17 11:59 | 50.04228 | 8.56704 | 369 ft | 14 kts | 70° |
| 2026-04-17 11:59 | 50.04261 | 8.56840 | 369 ft | 13 kts | 70° |
| 2026-04-17 12:00 | 50.04294 | 8.56981 | 371 ft | 14 kts | 70° |
| 2026-04-17 12:00 | 50.04329 | 8.57126 | 373 ft | 14 kts | 70° |
| 2026-04-17 12:00 | 50.04364 | 8.57274 | 373 ft | 15 kts | 69° |
| 2026-04-17 12:00 | 50.04401 | 8.57428 | 374 ft | 16 kts | 69° |
| 2026-04-17 12:01 | 50.04440 | 8.57590 | 376 ft | 15 kts | 69° |
| 2026-04-17 12:01 | 50.04479 | 8.57749 | 376 ft | 16 kts | 70° |
| 2026-04-17 12:01 | 50.04519 | 8.57917 | 373 ft | 17 kts | 70° |
| 2026-04-17 12:01 | 50.04558 | 8.58086 | 374 ft | 13 kts | 69° |
| 2026-04-17 12:02 | 50.04590 | 8.58216 | 375 ft | 13 kts | 69° |
| 2026-04-17 12:02 | 50.04621 | 8.58342 | 379 ft | 12 kts | 69° |
| 2026-04-17 12:02 | 50.04649 | 8.58463 | 380 ft | 5 kts | 70° |
| 2026-04-17 12:02 | 50.04653 | 8.58522 | 381 ft | 6 kts | 113° |
| 2026-04-17 12:03 | 50.04621 | 8.58570 | 379 ft | 7 kts | 152° |
| 2026-04-17 12:03 | 50.04577 | 8.58598 | 382 ft | 7 kts | 159° |
| 2026-04-17 12:03 | 50.04533 | 8.58623 | 382 ft | 7 kts | 161° |
| 2026-04-17 12:03 | 50.04495 | 8.58601 | 382 ft | 7 kts | 229° |
| 2026-04-17 12:04 | 50.04474 | 8.58544 | 381 ft | 1 kts | 249° |
| 2026-04-17 12:04 | 50.04474 | 8.58542 | 382 ft | 1 kts | 249° |
| 2026-04-17 12:04 | 50.04467 | 8.58511 | 381 ft | 15 kts | 249° |
| 2026-04-17 12:04 | 50.04356 | 8.58048 | 378 ft | 75 kts | 249° |
| 2026-04-17 12:05 | 50.04113 | 8.57026 | 375 ft | 126 kts | 249° |
| 2026-04-17 12:05 | 50.03750 | 8.55503 | 363 ft | 171 kts | 250° |
| 2026-04-17 12:05 | 50.03300 | 8.53631 | 616 ft | 187 kts | 247° |
| 2026-04-17 12:05 | 50.02819 | 8.51738 | 1152 ft | 188 kts | 246° |
| 2026-04-17 12:06 | 50.02138 | 8.50042 | 1717 ft | 190 kts | 218° |
| 2026-04-17 12:06 | 50.00922 | 8.49205 | 2249 ft | 194 kts | 198° |
| 2026-04-17 12:06 | 49.99586 | 8.48612 | 2669 ft | 202 kts | 197° |
| 2026-04-17 12:06 | 49.98219 | 8.48014 | 3125 ft | 206 kts | 197° |
| 2026-04-17 12:07 | 49.96833 | 8.47396 | 3644 ft | 207 kts | 197° |
| 2026-04-17 12:07 | 49.95462 | 8.46778 | 4170 ft | 210 kts | 197° |
| 2026-04-17 12:07 | 49.94017 | 8.46114 | 4470 ft | 223 kts | 197° |
| 2026-04-17 12:07 | 49.92474 | 8.45373 | 4744 ft | 240 kts | 203° |
| 2026-04-17 12:08 | 49.91077 | 8.43862 | 5078 ft | 253 kts | 231° |
| 2026-04-17 12:08 | 49.90102 | 8.41543 | 5677 ft | 258 kts | 238° |
| 2026-04-17 12:08 | 49.89199 | 8.39157 | 6354 ft | 260 kts | 241° |
| 2026-04-17 12:08 | 49.88609 | 8.36483 | 6978 ft | 266 kts | 262° |
| 2026-04-17 12:09 | 49.88619 | 8.33554 | 7510 ft | 275 kts | 274° |
| 2026-04-17 12:09 | 49.88796 | 8.30546 | 8148 ft | 280 kts | 275° |
| 2026-04-17 12:09 | 49.89081 | 8.27575 | 8840 ft | 284 kts | 286° |
| 2026-04-17 12:09 | 49.89895 | 8.24756 | 9550 ft | 287 kts | 307° |
| 2026-04-17 12:10 | 49.91381 | 8.22686 | 10250 ft | 289 kts | 326° |
| 2026-04-17 12:10 | 49.93047 | 8.20972 | 10801 ft | 296 kts | 325° |
| 2026-04-17 12:10 | 49.94814 | 8.19139 | 11107 ft | 312 kts | 325° |
| 2026-04-17 12:10 | 49.96668 | 8.17201 | 11396 ft | 328 kts | 325° |
| 2026-04-17 12:11 | 49.98586 | 8.15190 | 11675 ft | 344 kts | 325° |
| 2026-04-17 12:11 | 50.00624 | 8.13046 | 11977 ft | 359 kts | 325° |
| 2026-04-17 12:11 | 50.02749 | 8.10809 | 12257 ft | 374 kts | 325° |
| 2026-04-17 12:12 | 50.07108 | 8.06211 | 13473 ft | 383 kts | 324° |
| 2026-04-17 12:12 | 50.09330 | 8.03862 | 14168 ft | 386 kts | 324° |
| 2026-04-17 12:12 | 50.11540 | 8.01525 | 14759 ft | 389 kts | 324° |
| 2026-04-17 12:12 | 50.13795 | 7.99134 | 15341 ft | 392 kts | 324° |
| 2026-04-17 12:13 | 50.16070 | 7.96722 | 15940 ft | 395 kts | 324° |
| 2026-04-17 12:13 | 50.18331 | 7.94321 | 16513 ft | 399 kts | 324° |
| 2026-04-17 12:13 | 50.20641 | 7.91863 | 17089 ft | 402 kts | 324° |
| 2026-04-17 12:13 | 50.22976 | 7.89376 | 17676 ft | 405 kts | 324° |
| 2026-04-17 12:14 | 50.25316 | 7.86880 | 18256 ft | 408 kts | 324° |
| 2026-04-17 12:14 | 50.27648 | 7.84391 | 18767 ft | 411 kts | 324° |
| 2026-04-17 12:14 | 50.30024 | 7.81852 | 19256 ft | 415 kts | 324° |
| 2026-04-17 12:14 | 50.32427 | 7.79281 | 19750 ft | 417 kts | 324° |
| 2026-04-17 12:15 | 50.33466 | 7.78167 | 19964 ft | 418 kts | 324° |
| 2026-04-17 12:15 | 50.34418 | 7.77147 | 20158 ft | 419 kts | 324° |
| 2026-04-17 12:15 | 50.36810 | 7.74580 | 20636 ft | 422 kts | 323° |
| 2026-04-17 12:15 | 50.39239 | 7.71971 | 21121 ft | 424 kts | 323° |
| 2026-04-17 12:16 | 50.41678 | 7.69347 | 21636 ft | 426 kts | 323° |
| 2026-04-17 12:16 | 50.44130 | 7.66707 | 22138 ft | 428 kts | 323° |
| 2026-04-17 12:16 | 50.46605 | 7.64039 | 22613 ft | 431 kts | 323° |
| 2026-04-17 12:16 | 50.49090 | 7.61356 | 23111 ft | 434 kts | 324° |
| 2026-04-17 12:17 | 50.51585 | 7.58660 | 23588 ft | 436 kts | 323° |
| 2026-04-17 12:17 | 50.54095 | 7.55944 | 24009 ft | 439 kts | 323° |
| 2026-04-17 12:17 | 50.56591 | 7.53239 | 24404 ft | 441 kts | 323° |
| 2026-04-17 12:17 | 50.59123 | 7.50492 | 24826 ft | 443 kts | 323° |
| 2026-04-17 12:18 | 50.61668 | 7.47728 | 25236 ft | 444 kts | 323° |
| 2026-04-17 12:18 | 50.64223 | 7.44953 | 25640 ft | 446 kts | 323° |
| 2026-04-17 12:18 | 50.66785 | 7.42164 | 26009 ft | 448 kts | 323° |
| 2026-04-17 12:18 | 50.69357 | 7.39356 | 26415 ft | 450 kts | 323° |
| 2026-04-17 12:19 | 50.71889 | 7.36442 | 26797 ft | 450 kts | 319° |
| 2026-04-17 12:19 | 50.74200 | 7.33177 | 27177 ft | 451 kts | 313° |
| 2026-04-17 12:19 | 50.76307 | 7.29495 | 27547 ft | 451 kts | 308° |
| 2026-04-17 12:19 | 50.78196 | 7.25509 | 27926 ft | 452 kts | 305° |
| 2026-04-17 12:20 | 50.80026 | 7.21439 | 28317 ft | 453 kts | 304° |
| 2026-04-17 12:20 | 50.81841 | 7.17353 | 28839 ft | 452 kts | 304° |
| 2026-04-17 12:20 | 50.83645 | 7.13285 | 29429 ft | 449 kts | 304° |
| 2026-04-17 12:20 | 50.85417 | 7.09290 | 30004 ft | 446 kts | 304° |
| 2026-04-17 12:21 | 50.87203 | 7.05263 | 30512 ft | 443 kts | 304° |